createdAt,value
2022-12-13T00:00:04.430Z,-1.40
2022-12-13T00:02:42.544Z,-1.40
2022-12-13T00:05:13.759Z,-1.40
2022-12-13T00:07:43.982Z,-1.50
2022-12-13T00:10:12.840Z,-0.10
2022-12-13T00:12:41.739Z,-1.50
2022-12-13T00:15:11.664Z,-1.50
2022-12-13T00:17:40.683Z,-1.40
2022-12-13T00:20:10.279Z,-1.40
2022-12-13T00:22:40.810Z,-1.50
2022-12-13T00:25:10.027Z,-1.60
2022-12-13T00:27:39.723Z,-1.60
2022-12-13T00:30:09.401Z,-1.60
2022-12-13T00:32:38.289Z,-1.50
2022-12-13T00:35:07.778Z,-1.60
2022-12-13T00:37:36.702Z,-1.60
2022-12-13T00:40:08.440Z,-1.60
2022-12-13T00:42:37.523Z,-1.70
2022-12-13T00:45:07.064Z,-1.70
2022-12-13T00:47:35.937Z,-1.70
2022-12-13T00:50:06.029Z,-1.80
2022-12-13T00:52:35.879Z,-1.80
2022-12-13T00:55:06.771Z,-1.80
2022-12-13T00:57:35.857Z,-1.80
2022-12-13T01:00:07.255Z,-1.90
2022-12-13T01:02:36.138Z,-1.80
2022-12-13T01:05:05.276Z,-1.90
2022-12-13T01:07:34.006Z,-1.90
2022-12-13T01:10:03.028Z,-1.90
2022-12-13T01:12:33.150Z,-1.90
2022-12-13T01:15:02.300Z,-2.00
2022-12-13T01:17:31.746Z,-2.10
2022-12-13T01:20:00.614Z,-2.00
2022-12-13T01:22:29.771Z,-2.10
2022-12-13T01:24:58.674Z,-2.10
2022-12-13T01:27:27.566Z,-2.20
2022-12-13T01:29:58.371Z,-2.00
2022-12-13T01:32:27.177Z,-1.90
2022-12-13T01:34:56.146Z,-2.30
2022-12-13T01:37:26.045Z,-2.30
2022-12-13T01:39:55.115Z,-2.30
2022-12-13T01:42:27.527Z,-2.30
2022-12-13T01:45:26.208Z,-2.30
2022-12-13T01:47:58.674Z,-2.30
2022-12-13T01:50:30.546Z,-2.30
2022-12-13T01:53:00.820Z,-2.30
2022-12-13T01:55:33.169Z,-2.30
2022-12-13T01:58:10.435Z,-2.30
2022-12-13T02:00:41.099Z,-2.30
2022-12-13T02:03:21.315Z,-2.30
2022-12-13T02:05:57.489Z,-2.30
2022-12-13T02:08:30.344Z,-2.40
2022-12-13T02:11:05.712Z,-2.40
2022-12-13T02:13:37.016Z,-2.40
2022-12-13T02:16:14.128Z,-2.40
2022-12-13T02:19:08.718Z,-2.40
2022-12-13T02:21:48.943Z,-2.50
2022-12-13T02:24:37.015Z,-2.40
2022-12-13T02:27:12.061Z,-2.50
2022-12-13T02:30:22.431Z,-2.60
2022-12-13T02:33:04.739Z,-2.50
2022-12-13T02:35:40.846Z,-2.50
2022-12-13T02:38:21.476Z,-2.60
2022-12-13T02:41:00.731Z,-2.60
2022-12-13T02:43:34.195Z,-2.60
2022-12-13T02:46:04.589Z,-2.60
2022-12-13T02:48:39.299Z,-2.60
2022-12-13T02:51:11.874Z,-2.60
2022-12-13T02:53:42.038Z,-2.60
2022-12-13T02:56:10.554Z,-2.60
2022-12-13T02:58:43.398Z,-2.60
2022-12-13T03:01:40.903Z,-2.60
2022-12-13T03:04:26.099Z,-2.60
2022-12-13T03:07:02.025Z,-2.50
2022-12-13T03:09:50.477Z,-2.60
2022-12-13T03:12:45.337Z,-2.50
2022-12-13T03:15:20.039Z,-2.50
2022-12-13T03:17:53.023Z,-2.50
2022-12-13T03:20:26.308Z,-2.50
2022-12-13T03:22:56.083Z,-2.50
2022-12-13T03:25:31.230Z,-2.50
2022-12-13T03:28:02.889Z,-2.40
2022-12-13T03:30:32.672Z,-2.40
2022-12-13T03:33:01.989Z,-2.40
2022-12-13T03:35:34.907Z,-2.40
2022-12-13T03:38:22.614Z,-2.30
2022-12-13T03:40:55.382Z,-2.30
2022-12-13T03:43:24.797Z,-2.30
2022-12-13T03:45:53.778Z,-2.30
2022-12-13T03:48:24.078Z,-2.30
2022-12-13T03:50:55.808Z,-2.30
2022-12-13T03:53:33.663Z,-2.30
2022-12-13T03:56:05.631Z,-2.20
2022-12-13T03:58:38.113Z,-2.20
2022-12-13T04:01:08.886Z,-2.20
2022-12-13T04:03:38.872Z,-2.20
2022-12-13T04:06:10.248Z,-2.20
2022-12-13T04:08:40.306Z,-2.20
2022-12-13T04:11:23.549Z,-2.20
2022-12-13T04:13:52.964Z,-2.10
2022-12-13T04:16:22.619Z,-2.10
2022-12-13T04:18:51.704Z,-2.10
2022-12-13T04:21:22.060Z,-2.20
2022-12-13T04:23:50.764Z,-2.20
2022-12-13T04:26:19.522Z,-2.10
2022-12-13T04:28:54.189Z,-2.10
2022-12-13T04:31:23.789Z,-2.20
2022-12-13T04:33:52.706Z,-2.20
2022-12-13T04:36:31.001Z,-2.20
2022-12-13T04:39:02.127Z,-2.20
2022-12-13T04:41:33.928Z,-2.20
2022-12-13T04:44:04.767Z,-2.10
2022-12-13T04:46:33.466Z,-1.90
2022-12-13T04:49:02.555Z,-2.10
2022-12-13T04:51:32.779Z,-2.10
2022-12-13T04:54:12.943Z,-2.10
2022-12-13T04:56:50.626Z,-2.10
2022-12-13T04:59:20.527Z,-2.10
2022-12-13T05:01:49.308Z,-2.10
2022-12-13T05:04:18.470Z,-2.10
2022-12-13T05:06:48.675Z,-2.20
2022-12-13T05:09:17.519Z,-2.10
2022-12-13T05:11:46.330Z,-2.10
2022-12-13T05:14:23.411Z,-2.10
2022-12-13T05:16:53.499Z,-1.90
2022-12-13T05:19:22.417Z,-2.10
2022-12-13T05:22:02.150Z,-2.10
2022-12-13T05:24:32.130Z,-2.10
2022-12-13T05:27:01.357Z,-2.10
2022-12-13T05:29:50.350Z,-2.10
2022-12-13T05:32:18.936Z,-2.00
2022-12-13T05:34:48.624Z,-2.10
2022-12-13T05:37:19.329Z,-2.00
2022-12-13T05:39:47.954Z,-2.10
2022-12-13T05:42:16.793Z,-2.10
2022-12-13T05:44:45.342Z,-2.10
2022-12-13T05:47:14.146Z,-2.00
2022-12-13T05:49:43.029Z,-2.00
2022-12-13T05:52:19.298Z,-2.00
2022-12-13T05:54:48.438Z,-2.00
2022-12-13T05:57:17.246Z,-1.80
2022-12-13T05:59:45.929Z,-2.00
2022-12-13T06:02:21.143Z,-2.00
2022-12-13T06:04:50.546Z,-2.00
2022-12-13T06:07:21.121Z,-2.00
2022-12-13T06:09:50.036Z,-2.10
2022-12-13T06:12:31.785Z,-2.10
2022-12-13T06:15:01.729Z,-2.10
2022-12-13T06:17:33.156Z,-2.10
2022-12-13T06:20:02.236Z,-1.90
2022-12-13T06:22:53.634Z,-2.10
2022-12-13T06:25:31.345Z,-2.10
2022-12-13T06:28:01.326Z,-2.10
2022-12-13T06:30:30.803Z,-2.10
2022-12-13T06:32:59.584Z,-2.10
2022-12-13T06:35:30.404Z,-2.10
2022-12-13T06:38:02.107Z,-2.10
2022-12-13T06:40:31.502Z,-2.10
2022-12-13T06:43:00.899Z,-2.10
2022-12-13T06:45:29.742Z,-2.10
2022-12-13T06:47:58.714Z,-2.10
2022-12-13T06:50:27.241Z,-2.10
2022-12-13T06:52:55.981Z,-2.10
2022-12-13T06:55:26.180Z,-2.00
2022-12-13T06:57:55.032Z,-2.00
2022-12-13T07:00:27.223Z,-2.00
2022-12-13T07:03:05.706Z,-2.00
2022-12-13T07:05:34.938Z,-0.40
2022-12-13T07:08:03.816Z,-2.00
2022-12-13T07:10:35.074Z,-1.90
2022-12-13T07:13:03.731Z,-2.00
2022-12-13T07:15:34.994Z,-1.90
2022-12-13T07:18:04.045Z,-1.90
2022-12-13T07:20:32.968Z,-1.90
2022-12-13T07:23:01.820Z,-1.90
2022-12-13T07:25:30.499Z,-1.80
2022-12-13T07:28:03.746Z,-1.90
2022-12-13T07:30:34.209Z,-1.80
2022-12-13T07:33:11.491Z,-1.80
2022-12-13T07:35:41.130Z,-1.80
2022-12-13T07:38:11.923Z,-1.70
2022-12-13T07:40:42.057Z,-1.70
2022-12-13T07:43:13.402Z,-1.70
2022-12-13T07:45:42.037Z,-1.80
2022-12-13T07:48:10.922Z,-1.60
2022-12-13T07:50:39.477Z,-1.60
2022-12-13T07:53:09.684Z,-1.70
2022-12-13T07:55:39.220Z,-1.60
2022-12-13T07:58:10.258Z,-1.60
2022-12-13T08:00:46.435Z,-1.60
2022-12-13T08:03:25.379Z,-1.60
2022-12-13T08:06:01.778Z,-1.60
2022-12-13T08:08:31.818Z,-1.50
2022-12-13T08:11:04.702Z,-1.50
2022-12-13T08:13:33.449Z,-1.50
2022-12-13T08:16:27.207Z,-1.50
2022-12-13T08:19:01.782Z,-1.50
2022-12-13T08:24:26.872Z,-1.50
2022-12-13T08:26:57.464Z,-1.50
2022-12-13T08:29:34.567Z,-1.40
2022-12-13T08:32:08.065Z,-1.40
2022-12-13T08:34:37.138Z,-1.40
2022-12-13T08:37:06.402Z,-1.40
2022-12-13T08:39:37.847Z,-1.40
2022-12-13T08:42:16.076Z,-1.30
2022-12-13T08:44:49.155Z,-1.40
2022-12-13T08:47:22.875Z,-1.50
2022-12-13T08:49:55.276Z,0.10
2022-12-13T08:52:24.654Z,-1.40
2022-12-13T08:54:53.170Z,-1.40
2022-12-13T08:57:21.989Z,-1.40
2022-12-13T08:59:50.518Z,-1.40
2022-12-13T09:02:20.758Z,-1.40
2022-12-13T09:04:50.080Z,-1.40
2022-12-13T09:07:18.552Z,-1.40
2022-12-13T09:09:47.065Z,-1.50
2022-12-13T09:12:30.017Z,-1.50
2022-12-13T09:15:01.613Z,-1.50
2022-12-13T09:17:44.480Z,-1.50
2022-12-13T09:20:41.311Z,-1.60
2022-12-13T09:23:13.930Z,-1.70
2022-12-13T09:26:05.228Z,-1.70
2022-12-13T09:28:37.158Z,-1.80
2022-12-13T09:31:08.838Z,-1.80
2022-12-13T09:33:40.994Z,-1.70
2022-12-13T09:36:13.939Z,-1.70
2022-12-13T09:38:42.969Z,-1.70
2022-12-13T09:41:20.457Z,-1.70
2022-12-13T09:44:02.012Z,-1.60
2022-12-13T09:46:34.733Z,-1.60
2022-12-13T09:49:22.635Z,-1.50
2022-12-13T09:52:11.723Z,-1.50
2022-12-13T09:54:48.721Z,-1.60
2022-12-13T09:57:32.796Z,-1.50
2022-12-13T10:00:06.012Z,-1.60
2022-12-13T10:02:46.470Z,-1.70
2022-12-13T10:05:33.868Z,-1.60
2022-12-13T10:08:11.438Z,-1.50
2022-12-13T10:10:40.265Z,-1.40
2022-12-13T10:13:16.309Z,-0.60
2022-12-13T10:15:48.823Z,-1.20
2022-12-13T10:18:27.199Z,-1.30
2022-12-13T10:20:58.751Z,-1.30
2022-12-13T10:23:53.101Z,-1.30
2022-12-13T10:26:24.373Z,-1.10
2022-12-13T10:29:04.333Z,-1.30
2022-12-13T10:31:41.830Z,-0.40
2022-12-13T10:34:22.042Z,-1.20
2022-12-13T10:36:53.062Z,-1.20
2022-12-13T10:39:39.490Z,-1.20
2022-12-13T10:42:14.597Z,-1.20
2022-12-13T10:45:09.408Z,-1.20
2022-12-13T10:47:38.101Z,-1.20
2022-12-13T10:50:07.387Z,-1.20
2022-12-13T10:52:43.939Z,-1.10
2022-12-13T10:55:27.338Z,-1.10
2022-12-13T10:57:59.461Z,-1.10
2022-12-13T11:00:37.733Z,-1.10
2022-12-13T11:03:06.880Z,-1.20
2022-12-13T11:05:38.227Z,-1.20
2022-12-13T11:08:25.243Z,-1.10
2022-12-13T11:11:00.143Z,-1.20
2022-12-13T11:13:38.565Z,-1.30
2022-12-13T11:16:23.447Z,-1.10
2022-12-13T11:18:55.425Z,-0.30
2022-12-13T11:21:27.802Z,-1.10
2022-12-13T11:24:01.917Z,-1.20
2022-12-13T11:26:33.211Z,-1.10
2022-12-13T11:29:18.767Z,-1.10
2022-12-13T11:31:55.519Z,-1.00
2022-12-13T11:34:35.990Z,-1.00
2022-12-13T11:37:17.887Z,-1.00
2022-12-13T11:39:53.606Z,-1.00
2022-12-13T11:42:35.668Z,0.30
2022-12-13T11:45:13.492Z,-1.00
2022-12-13T11:47:58.137Z,0.20
2022-12-13T11:50:34.136Z,-1.00
2022-12-13T11:53:24.332Z,-0.90
2022-12-13T11:56:01.104Z,-0.80
2022-12-13T12:01:31.446Z,-0.80
2022-12-13T12:04:15.942Z,-0.80
2022-12-13T12:06:50.248Z,-0.90
2022-12-13T12:09:22.302Z,-0.80
2022-12-13T12:12:00.670Z,-0.80
2022-12-13T12:14:41.249Z,-0.80
2022-12-13T12:17:14.843Z,-0.90
2022-12-13T12:19:48.065Z,-0.90
2022-12-13T12:22:26.861Z,-0.90
2022-12-13T12:25:08.894Z,-1.00
2022-12-13T12:27:48.222Z,-1.00
2022-12-13T12:30:22.872Z,-1.10
2022-12-13T12:33:03.309Z,-1.00
2022-12-13T12:35:58.772Z,-1.10
2022-12-13T12:39:02.166Z,-1.00
2022-12-13T12:41:45.088Z,-1.00
2022-12-13T12:44:30.474Z,-0.90
2022-12-13T12:47:38.244Z,-0.80
2022-12-13T12:50:32.756Z,-0.90
2022-12-13T12:53:10.517Z,-0.90
2022-12-13T12:55:49.889Z,-0.90
2022-12-13T12:58:29.040Z,-0.90
2022-12-13T13:01:11.593Z,1.50
2022-12-13T13:03:43.386Z,-0.90
2022-12-13T13:06:16.976Z,-0.90
2022-12-13T13:08:55.007Z,-0.90
2022-12-13T13:11:26.506Z,-1.00
2022-12-13T13:14:08.352Z,-0.90
2022-12-13T13:16:40.509Z,-0.90
2022-12-13T13:19:47.891Z,-1.00
2022-12-13T13:22:32.674Z,-0.90
2022-12-13T13:25:25.966Z,-0.90
2022-12-13T13:28:04.271Z,-0.90
2022-12-13T13:30:36.448Z,-0.90
2022-12-13T13:33:43.122Z,-0.90
2022-12-13T13:36:52.771Z,-0.90
2022-12-13T13:39:39.958Z,-0.90
2022-12-13T13:42:18.965Z,-0.90
2022-12-13T13:45:04.670Z,-0.90
2022-12-13T13:47:42.713Z,-0.90
2022-12-13T13:50:47.893Z,-1.00
2022-12-13T13:53:50.893Z,-1.00
2022-12-13T13:56:56.168Z,-1.00
2022-12-13T14:00:12.006Z,-1.00
2022-12-13T14:03:33.298Z,-0.90
2022-12-13T14:06:42.941Z,-0.90
2022-12-13T14:09:48.215Z,-0.90
2022-12-13T14:13:14.781Z,-0.90
2022-12-13T14:16:21.272Z,-0.90
2022-12-13T14:19:25.822Z,-0.90
2022-12-13T14:22:07.473Z,-0.90
2022-12-13T14:24:51.645Z,-0.90
2022-12-13T14:27:34.571Z,-1.00
2022-12-13T14:30:09.620Z,-1.00
2022-12-13T14:32:52.481Z,-1.00
2022-12-13T14:35:27.207Z,-1.00
2022-12-13T14:38:01.385Z,-1.20
2022-12-13T14:40:33.181Z,0.30
2022-12-13T14:43:04.877Z,-1.20
2022-12-13T14:45:36.784Z,-1.10
2022-12-13T14:48:10.059Z,-1.20
2022-12-13T14:50:49.251Z,-1.10
2022-12-13T14:53:26.816Z,-1.10
2022-12-13T14:56:07.607Z,-1.10
2022-12-13T14:58:38.080Z,-1.10
2022-12-13T15:01:07.676Z,-1.10
2022-12-13T15:03:36.714Z,-1.10
2022-12-13T15:06:05.874Z,-1.10
2022-12-13T15:08:39.205Z,-1.10
2022-12-13T15:11:11.024Z,-1.10
2022-12-13T15:13:43.666Z,-1.10
2022-12-13T15:16:19.599Z,-1.10
2022-12-13T15:19:10.748Z,-1.20
2022-12-13T15:21:41.147Z,-0.90
2022-12-13T15:24:14.442Z,-1.10
2022-12-13T15:26:45.303Z,-1.10
2022-12-13T15:29:20.698Z,-1.20
2022-12-13T15:31:50.255Z,-1.20
2022-12-13T15:34:29.358Z,-1.10
2022-12-13T15:37:01.045Z,-1.20
2022-12-13T15:39:32.112Z,-1.20
2022-12-13T15:42:01.197Z,-1.10
2022-12-13T15:44:33.885Z,-1.20
2022-12-13T15:47:06.164Z,-1.20
2022-12-13T15:49:38.399Z,-1.20
2022-12-13T15:52:26.925Z,-1.20
2022-12-13T15:54:58.526Z,-1.20
2022-12-13T15:57:29.257Z,-1.30
2022-12-13T16:00:17.225Z,-1.30
2022-12-13T16:02:52.870Z,-1.30
2022-12-13T16:05:28.969Z,-1.40
2022-12-13T16:08:00.366Z,-1.30
2022-12-13T16:10:48.471Z,-1.40
2022-12-13T16:13:27.394Z,-1.30
2022-12-13T16:16:09.299Z,-1.30
2022-12-13T16:18:47.502Z,-1.40
2022-12-13T16:21:16.305Z,-1.40
2022-12-13T16:23:48.508Z,-1.40
2022-12-13T16:26:24.308Z,-1.40
2022-12-13T16:28:53.235Z,-1.40
2022-12-13T16:31:27.917Z,-1.40
2022-12-13T16:33:56.843Z,-1.50
2022-12-13T16:36:26.423Z,-1.50
2022-12-13T16:38:55.118Z,-1.50
2022-12-13T16:41:24.321Z,-1.60
2022-12-13T16:43:56.265Z,-1.50
2022-12-13T16:47:13.326Z,0.30
2022-12-13T16:49:21.669Z,-1.50
2022-12-13T16:51:50.971Z,-1.50
2022-12-13T16:54:20.953Z,-1.50
2022-12-13T16:56:50.292Z,-1.40
2022-12-13T16:59:20.510Z,-1.50
2022-12-13T17:01:51.331Z,-1.60
2022-12-13T17:04:22.464Z,-1.50
2022-12-13T17:06:54.946Z,-1.50
2022-12-13T17:09:25.419Z,-1.50
2022-12-13T17:11:54.426Z,-1.50
2022-12-13T17:14:23.237Z,-1.60
2022-12-13T17:16:53.208Z,-1.10
2022-12-13T17:19:22.403Z,-1.60
2022-12-13T17:21:51.701Z,-1.70
2022-12-13T17:24:20.577Z,-1.70
2022-12-13T17:26:53.851Z,-1.60
2022-12-13T17:29:23.235Z,-1.80
2022-12-13T17:31:53.944Z,-1.80
2022-12-13T17:34:22.742Z,-1.90
2022-12-13T17:36:51.790Z,-1.90
2022-12-13T17:39:21.882Z,-1.90
2022-12-13T17:41:55.412Z,-2.00
2022-12-13T17:44:25.599Z,-2.00
2022-12-13T17:46:56.356Z,-2.10
2022-12-13T17:49:25.700Z,-2.10
2022-12-13T17:51:55.422Z,-2.10
2022-12-13T17:54:25.364Z,-2.10
2022-12-13T17:56:54.547Z,-2.00
2022-12-13T17:59:23.589Z,-1.50
2022-12-13T18:01:52.561Z,-2.00
2022-12-13T18:04:23.268Z,-2.00
2022-12-13T18:06:52.210Z,-2.00
2022-12-13T18:09:20.710Z,-1.90
2022-12-13T18:11:49.237Z,-1.90
2022-12-13T18:14:17.802Z,-2.00
2022-12-13T18:16:46.802Z,-2.10
2022-12-13T18:19:15.873Z,-2.10
2022-12-13T18:21:45.756Z,-2.20
2022-12-13T18:24:15.018Z,-2.20
2022-12-13T18:26:43.559Z,-2.10
2022-12-13T18:29:12.492Z,-2.10
2022-12-13T18:31:41.488Z,-1.10
2022-12-13T18:34:10.150Z,-2.10
2022-12-13T18:36:39.572Z,-2.10
2022-12-13T18:39:10.013Z,-2.10
2022-12-13T18:41:40.154Z,-2.10
2022-12-13T18:44:09.649Z,-2.20
2022-12-13T18:46:43.360Z,-2.10
2022-12-13T18:49:14.537Z,-2.10
2022-12-13T18:51:43.170Z,-2.10
2022-12-13T18:54:14.303Z,-2.10
2022-12-13T18:56:42.936Z,-2.10
2022-12-13T18:59:12.480Z,-2.00
2022-12-13T19:01:41.547Z,-2.10
2022-12-13T19:04:11.181Z,-2.10
2022-12-13T19:06:40.081Z,-2.10
2022-12-13T19:09:09.042Z,-2.10
2022-12-13T19:11:39.416Z,-2.20
2022-12-13T19:14:08.415Z,-2.10
2022-12-13T19:16:37.220Z,-2.10
2022-12-13T19:19:06.991Z,-2.10
2022-12-13T19:21:35.907Z,-2.10
2022-12-13T19:24:05.518Z,-2.10
2022-12-13T19:26:34.645Z,-2.10
2022-12-13T19:29:05.418Z,-2.10
2022-12-13T19:31:34.480Z,-2.20
2022-12-13T19:34:03.854Z,-2.20
2022-12-13T19:36:33.150Z,-2.20
2022-12-13T19:39:01.780Z,-2.30
2022-12-13T19:41:32.259Z,-2.20
2022-12-13T19:44:04.503Z,-2.30
2022-12-13T19:46:35.001Z,-2.30
2022-12-13T19:49:03.750Z,-2.30
2022-12-13T19:51:39.024Z,-2.30
2022-12-13T19:54:08.264Z,-2.30
2022-12-13T19:56:36.766Z,-2.40
2022-12-13T19:59:05.329Z,-2.40
2022-12-13T20:01:35.322Z,-2.50
2022-12-13T20:04:04.036Z,-2.50
2022-12-13T20:06:32.594Z,-2.50
2022-12-13T20:09:01.466Z,-2.60
2022-12-13T20:11:31.408Z,-2.60
2022-12-13T20:13:59.985Z,-2.50
2022-12-13T20:16:28.634Z,-2.60
2022-12-13T20:19:00.250Z,-2.70
2022-12-13T20:21:29.945Z,-2.70
2022-12-13T20:23:58.778Z,-2.80
2022-12-13T20:26:30.009Z,-2.80
2022-12-13T20:28:59.905Z,-2.90
2022-12-13T20:31:30.976Z,-3.00
2022-12-13T20:34:03.067Z,-3.10
2022-12-13T20:36:32.861Z,-3.20
2022-12-13T20:39:02.907Z,-2.20
2022-12-13T20:41:33.796Z,-3.30
2022-12-13T20:44:04.317Z,-3.40
2022-12-13T20:46:33.161Z,-3.40
2022-12-13T20:49:06.335Z,-3.50
2022-12-13T20:51:36.570Z,-3.60
2022-12-13T20:54:05.738Z,-3.70
2022-12-13T20:56:36.903Z,-3.80
2022-12-13T20:59:07.282Z,-3.90
2022-12-13T21:01:37.968Z,-4.00
2022-12-13T21:04:09.993Z,-4.00
2022-12-13T21:06:40.737Z,-4.10
2022-12-13T21:09:11.033Z,-4.20
2022-12-13T21:11:41.944Z,-4.30
2022-12-13T21:14:20.421Z,-4.30
2022-12-13T21:16:52.121Z,-4.40
2022-12-13T21:19:23.733Z,-4.40
2022-12-13T21:21:53.225Z,-4.40
2022-12-13T21:24:23.486Z,-4.30
2022-12-13T21:26:52.263Z,-4.30
2022-12-13T21:29:20.975Z,-4.30
2022-12-13T21:31:51.038Z,-4.30
2022-12-13T21:34:22.170Z,-4.40
2022-12-13T21:36:53.103Z,-4.30
2022-12-13T21:39:24.111Z,-4.40
2022-12-13T21:41:53.996Z,-4.30
2022-12-13T21:44:22.891Z,-4.40
2022-12-13T21:49:42.032Z,-4.60
2022-12-13T21:52:18.079Z,-4.70
2022-12-13T21:54:46.647Z,-4.80
2022-12-13T21:57:32.788Z,-4.80
2022-12-13T22:00:01.538Z,-4.80
2022-12-13T22:02:30.306Z,-4.80
2022-12-13T22:05:01.346Z,-4.90
2022-12-13T22:07:31.852Z,-5.00
2022-12-13T22:10:03.679Z,-5.00
2022-12-13T22:12:35.792Z,-5.00
2022-12-13T22:15:06.535Z,-5.00
2022-12-13T22:17:36.415Z,-5.00
2022-12-13T22:20:08.994Z,-4.90
2022-12-13T22:22:40.084Z,-5.20
2022-12-13T22:25:09.993Z,-5.20
2022-12-13T22:27:38.550Z,-5.20
2022-12-13T22:30:08.446Z,-5.30
2022-12-13T22:32:36.983Z,-5.30
2022-12-13T22:35:07.867Z,-5.40
2022-12-13T22:37:36.418Z,-5.40
2022-12-13T22:40:06.808Z,-5.40
2022-12-13T22:42:35.470Z,-5.50
2022-12-13T22:45:04.156Z,-5.40
2022-12-13T22:47:32.709Z,-5.40
2022-12-13T22:50:01.215Z,-5.30
2022-12-13T22:52:34.012Z,-5.30
2022-12-13T22:55:03.868Z,-5.30
2022-12-13T22:57:32.859Z,-5.40
2022-12-13T23:00:01.314Z,-5.40
2022-12-13T23:02:29.992Z,-5.40
2022-12-13T23:04:58.573Z,-5.50
2022-12-13T23:07:27.071Z,-5.40
2022-12-13T23:09:56.982Z,-5.40
2022-12-13T23:12:42.942Z,-5.40
2022-12-13T23:15:12.395Z,-5.40
2022-12-13T23:17:41.217Z,-5.50
2022-12-13T23:20:11.385Z,-5.50
2022-12-13T23:22:40.348Z,-5.50
2022-12-13T23:25:11.515Z,-5.50
2022-12-13T23:27:40.338Z,-5.50
2022-12-13T23:30:10.674Z,-5.50
2022-12-13T23:32:39.521Z,-5.60
2022-12-13T23:35:10.309Z,-5.70
2022-12-13T23:37:39.217Z,-5.70
2022-12-13T23:40:12.095Z,-5.80
2022-12-13T23:42:40.961Z,-5.70
2022-12-13T23:45:10.602Z,-5.60
2022-12-13T23:47:39.539Z,-5.60
2022-12-13T23:50:09.720Z,-5.70
2022-12-13T23:52:38.819Z,-5.70
2022-12-13T23:55:08.136Z,-5.60
2022-12-13T23:57:38.509Z,-5.60
